Huvudsida
METAR-TAF:

METAR-TAF

Flygplatser :

Karlstad Airport

Karlstad, Sverige

latitud: 59-26-41N, longitud: 013-20-15E, höjd: 107 m

Aktuellt väderrapport

Denna rapport gjordes för 38 minuter sedan, klockan 18:50 UTC
Vind 5 kt från syd/sydväst
Temperatur 22°C
Fuktighet 50%
Tryck 1018 hPa
Sikt 10 km eller mer
Inga moln under 1 500 m eller inga cumulonimbus

METAR: ESOK 251850Z 21005KT CAVOK 22/11 Q1018

Tid: 21:28 (19:28 UTC)

Väderprognos

Denna rapport gjordes för 1 timme och 58 minuter sedan, klockan 17:30 UTC
Prognos gäller från 25 kl. 18 UTC till 25 kl. 22 UTC
Vind 6 kt från syd/sydväst
Sikt 10 km eller mer
Inga moln under 1 500 m eller inga cumulonimbus

TAF: ESOK 251730Z 2518/2522 21006KT CAVOK

Aktuella väderrapporter och prognoser från 4000 flygplatser (METAR- och TAF-rapporter).

De tillgängliga stationerna syns som gula och röda prickar på kartan.

För musen över prickarna för att se namnen på stationerna.

Klicka sedan för att få väderrapporter och prognoser.

För att ändra kartan: Klicka på de gröna knapparna med ett svart kors på för att zooma in; den gröna knappen med ett streck på för att zooma ut; eller på de gröna pilarna för angränsande kartor.


METAR-TAF: